createdAt,value
2018-01-27T00:01:53.515Z,1017.16
2018-01-27T00:04:40.981Z,1017.18
2018-01-27T00:08:55.250Z,1017.22
2018-01-27T00:11:44.606Z,1017.23
2018-01-27T00:12:36.201Z,1017.15
2018-01-27T00:15:09.034Z,1017.24
2018-01-27T00:17:40.195Z,1017.27
2018-01-27T00:18:37.770Z,1017.26
2018-01-27T00:20:36.222Z,1017.25
2018-01-27T00:26:55.257Z,1017.24
2018-01-27T00:28:53.884Z,1017.28
2018-01-27T00:33:20.714Z,1017.24
2018-01-27T00:37:10.257Z,1017.32
2018-01-27T00:38:00.794Z,1017.3
2018-01-27T00:40:58.386Z,1017.35
2018-01-27T00:41:56.696Z,1017.28
2018-01-27T00:42:50.857Z,1017.38
2018-01-27T00:44:59.235Z,1017.45
2018-01-27T00:49:45.119Z,1017.4
2018-01-27T00:50:40.616Z,1017.4
2018-01-27T00:52:38.376Z,1017.32
2018-01-27T00:54:38.889Z,1017.35
2018-01-27T00:57:38.774Z,1017.3
2018-01-27T01:01:12.900Z,1017.31
2018-01-27T01:02:07.360Z,1017.31
2018-01-27T01:04:04.304Z,1017.29
2018-01-27T01:10:53.938Z,1017.32
2018-01-27T01:12:48.911Z,1017.36
2018-01-27T01:14:56.233Z,1017.35
2018-01-27T01:25:28.868Z,1017.42
2018-01-27T01:26:19.440Z,1017.35
2018-01-27T01:30:30.243Z,1017.34
2018-01-27T01:38:03.273Z,1017.53
2018-01-27T01:40:09.641Z,1017.52
2018-01-27T01:41:00.449Z,1017.56
2018-01-27T01:46:56.913Z,1017.57
2018-01-27T01:48:55.026Z,1017.59
2018-01-27T01:54:37.345Z,1017.6
2018-01-27T01:55:28.018Z,1017.56
2018-01-27T01:56:32.025Z,1017.62
2018-01-27T01:59:12.473Z,1017.66
2018-01-27T02:00:01.306Z,1017.66
2018-01-27T02:00:50.206Z,1017.67
2018-01-27T02:01:39.159Z,1017.65
2018-01-27T02:02:27.234Z,1017.67
2018-01-27T02:03:16.467Z,1017.7
2018-01-27T02:09:41.940Z,1017.68
2018-01-27T02:10:34.866Z,1017.62
2018-01-27T02:13:44.463Z,1017.69
2018-01-27T02:16:17.733Z,1017.75
2018-01-27T02:19:24.168Z,1017.78
2018-01-27T02:20:18.889Z,1017.77
2018-01-27T02:21:11.193Z,1017.72
2018-01-27T02:25:40.211Z,1017.74
2018-01-27T02:28:50.538Z,1017.78
2018-01-27T02:29:40.611Z,1017.81
2018-01-27T02:34:31.631Z,1017.87
2018-01-27T02:37:31.833Z,1017.85
2018-01-27T02:44:37.844Z,1017.78
2018-01-27T02:46:37.403Z,1017.81
2018-01-27T02:50:42.085Z,1017.8
2018-01-27T02:53:24.474Z,1017.79
2018-01-27T02:58:35.190Z,1017.9
2018-01-27T03:04:50.945Z,1018
2018-01-27T03:06:50.168Z,1017.98
2018-01-27T03:08:47.520Z,1018.08
2018-01-27T03:09:53.971Z,1018.07
2018-01-27T03:11:52.365Z,1018.11
2018-01-27T03:12:42.521Z,1018.17
2018-01-27T03:14:48.877Z,1018.23
2018-01-27T03:19:00.777Z,1018.28
2018-01-27T03:21:13.222Z,1018.23
2018-01-27T03:23:13.400Z,1018.25
2018-01-27T03:28:01.443Z,1018.25
2018-01-27T03:33:08.454Z,1018.25
2018-01-27T03:33:57.151Z,1018.22
2018-01-27T03:36:05.930Z,1018.26
2018-01-27T03:36:57.004Z,1018.26
2018-01-27T03:37:48.432Z,1018.31
2018-01-27T03:38:41.848Z,1018.3
2018-01-27T03:40:39.726Z,1018.37
2018-01-27T03:52:59.603Z,1018.46
2018-01-27T03:56:00.514Z,1018.58
2018-01-27T03:58:36.538Z,1018.57
2018-01-27T03:59:25.350Z,1018.58
2018-01-27T04:00:14.020Z,1018.59
2018-01-27T04:01:02.874Z,1018.59
2018-01-27T04:01:53.022Z,1018.61
2018-01-27T04:42:40.609Z,1019.12
2018-01-27T04:45:14.081Z,1019.2
2018-01-27T04:45:54.985Z,1019.23
2018-01-27T04:46:35.440Z,1019.22
2018-01-27T04:47:15.836Z,1019.23
2018-01-27T04:47:56.232Z,1019.26
2018-01-27T04:48:36.659Z,1019.28
2018-01-27T04:49:17.020Z,1019.28
2018-01-27T04:49:57.446Z,1019.3
2018-01-27T04:50:37.847Z,1019.29
2018-01-27T04:51:18.260Z,1019.3
2018-01-27T04:51:58.597Z,1019.35
2018-01-27T04:52:39.026Z,1019.35
2018-01-27T04:53:19.419Z,1019.37
2018-01-27T04:53:59.909Z,1019.35
2018-01-27T04:54:40.316Z,1019.37
2018-01-27T04:55:20.764Z,1019.37
2018-01-27T04:56:01.199Z,1019.4
2018-01-27T04:56:41.545Z,1019.38
2018-01-27T04:57:21.950Z,1019.43
2018-01-27T04:58:02.408Z,1019.46
2018-01-27T04:58:42.737Z,1019.45
2018-01-27T04:59:23.207Z,1019.44
2018-01-27T05:00:03.639Z,1019.45
2018-01-27T05:00:44.061Z,1019.42
2018-01-27T05:01:24.447Z,1019.47
2018-01-27T05:02:04.830Z,1019.44
2018-01-27T05:02:45.365Z,1019.5
2018-01-27T05:03:25.738Z,1019.48
2018-01-27T05:04:06.140Z,1019.5
2018-01-27T05:04:46.530Z,1019.48
2018-01-27T05:05:26.976Z,1019.51
2018-01-27T05:06:07.331Z,1019.5
2018-01-27T05:06:47.730Z,1019.5
2018-01-27T05:07:28.074Z,1019.5
2018-01-27T05:08:08.490Z,1019.5
2018-01-27T05:08:48.860Z,1019.52
2018-01-27T05:09:29.272Z,1019.52
2018-01-27T05:10:09.760Z,1019.53
2018-01-27T05:10:50.147Z,1019.56
2018-01-27T05:11:30.578Z,1019.53
2018-01-27T05:12:10.906Z,1019.55
2018-01-27T05:12:51.333Z,1019.54
2018-01-27T05:13:31.700Z,1019.56
2018-01-27T05:14:12.164Z,1019.54
2018-01-27T05:14:52.574Z,1019.54
2018-01-27T05:15:32.942Z,1019.53
2018-01-27T05:16:13.431Z,1019.51
2018-01-27T05:16:53.819Z,1019.54
2018-01-27T05:17:34.163Z,1019.54
2018-01-27T05:18:14.633Z,1019.54
2018-01-27T05:18:54.956Z,1019.54
2018-01-27T05:19:35.423Z,1019.56
2018-01-27T05:20:15.848Z,1019.59
2018-01-27T05:20:56.221Z,1019.54
2018-01-27T05:21:36.651Z,1019.61
2018-01-27T05:22:17.062Z,1019.63
2018-01-27T05:22:57.415Z,1019.63
2018-01-27T05:23:37.871Z,1019.64
2018-01-27T05:24:18.281Z,1019.66
2018-01-27T05:24:58.702Z,1019.65
2018-01-27T05:25:39.068Z,1019.67
2018-01-27T05:26:19.552Z,1019.73
2018-01-27T05:26:59.932Z,1019.72
2018-01-27T05:27:40.334Z,1019.75
2018-01-27T05:28:20.737Z,1019.77
2018-01-27T05:29:01.146Z,1019.78
2018-01-27T05:29:41.481Z,1019.82
2018-01-27T05:30:21.909Z,1019.86
2018-01-27T05:31:02.356Z,1019.88
2018-01-27T05:31:42.721Z,1019.89
2018-01-27T05:32:23.089Z,1019.89
2018-01-27T05:33:03.537Z,1019.87
2018-01-27T05:33:43.858Z,1019.89
2018-01-27T05:34:24.331Z,1019.89
2018-01-27T05:35:04.815Z,1019.92
2018-01-27T05:35:45.219Z,1019.95
2018-01-27T05:36:25.636Z,1019.92
2018-01-27T05:37:05.981Z,1019.99
2018-01-27T05:37:46.358Z,1019.98
2018-01-27T05:38:26.805Z,1020
2018-01-27T05:39:07.121Z,1020.04
2018-01-27T05:39:47.612Z,1020.04
2018-01-27T05:40:28.007Z,1020.07
2018-01-27T05:41:08.427Z,1020.05
2018-01-27T05:41:48.876Z,1020.04
2018-01-27T05:42:29.272Z,1020.05
2018-01-27T05:43:09.624Z,1020.05
2018-01-27T05:43:50.032Z,1020.03
2018-01-27T05:44:30.559Z,1020.03
2018-01-27T05:45:10.945Z,1020.08
2018-01-27T05:45:51.392Z,1020.06
2018-01-27T05:46:31.704Z,1020.07
2018-01-27T05:47:12.145Z,1020.07
2018-01-27T05:47:52.525Z,1020.09
2018-01-27T05:48:32.947Z,1020.1
2018-01-27T05:49:13.371Z,1020.07
2018-01-27T05:49:53.692Z,1020.07
2018-01-27T05:50:34.132Z,1020.08
2018-01-27T05:51:14.590Z,1020.06
2018-01-27T05:51:55.068Z,1019.98
2018-01-27T05:52:35.430Z,1019.97
2018-01-27T05:53:15.838Z,1019.95
2018-01-27T05:53:56.244Z,1019.91
2018-01-27T05:54:36.645Z,1019.89
2018-01-27T05:55:17.041Z,1019.94
2018-01-27T05:55:57.455Z,1019.96
2018-01-27T05:56:37.840Z,1019.97
2018-01-27T05:57:18.306Z,1019.99
2018-01-27T05:57:58.739Z,1020.01
2018-01-27T05:58:39.070Z,1020.04
2018-01-27T05:59:19.571Z,1020.04
2018-01-27T05:59:59.944Z,1020.05
2018-01-27T06:00:40.315Z,1020.09
2018-01-27T06:01:20.748Z,1020.09
2018-01-27T06:02:01.180Z,1020.09
2018-01-27T06:02:41.636Z,1020.11
2018-01-27T06:03:21.986Z,1020.12
2018-01-27T06:04:02.415Z,1020.13
2018-01-27T06:04:42.827Z,1020.11
2018-01-27T06:05:23.250Z,1020.12
2018-01-27T06:06:03.646Z,1020.07
2018-01-27T06:06:44.009Z,1020.1
2018-01-27T06:07:24.456Z,1020.09
2018-01-27T06:08:04.834Z,1020.13
2018-01-27T06:08:45.288Z,1020.1
2018-01-27T06:09:25.671Z,1020.1
2018-01-27T06:10:06.018Z,1020.1
2018-01-27T06:10:46.480Z,1020.11
2018-01-27T06:11:26.873Z,1020.14
2018-01-27T06:12:07.294Z,1020.15
2018-01-27T06:12:47.676Z,1020.14
2018-01-27T06:13:28.056Z,1020.16
2018-01-27T06:14:08.480Z,1020.13
2018-01-27T06:14:48.854Z,1020.14
2018-01-27T06:15:29.337Z,1020.15
2018-01-27T06:16:09.730Z,1020.14
2018-01-27T06:16:50.192Z,1020.14
2018-01-27T06:17:30.700Z,1020.13
2018-01-27T06:18:11.020Z,1020.19
2018-01-27T06:18:51.394Z,1020.13
2018-01-27T06:19:31.786Z,1020.16
2018-01-27T06:20:12.162Z,1020.16
2018-01-27T06:20:52.604Z,1020.17
2018-01-27T06:21:32.984Z,1020.17
2018-01-27T06:22:13.388Z,1020.22
2018-01-27T06:22:53.836Z,1020.22
2018-01-27T06:23:34.233Z,1020.24
2018-01-27T06:24:14.652Z,1020.24
2018-01-27T06:24:54.983Z,1020.26
2018-01-27T06:25:35.464Z,1020.28
2018-01-27T06:26:15.876Z,1020.29
2018-01-27T06:26:56.328Z,1020.29
2018-01-27T06:27:36.719Z,1020.29
2018-01-27T06:28:17.057Z,1020.33
2018-01-27T06:28:57.543Z,1020.34
2018-01-27T06:29:37.861Z,1020.34
2018-01-27T06:30:18.229Z,1020.36
2018-01-27T06:30:58.659Z,1020.38
2018-01-27T06:31:39.066Z,1020.38
2018-01-27T06:32:19.437Z,1020.41
2018-01-27T06:32:59.852Z,1020.41
2018-01-27T06:33:40.296Z,1020.43
2018-01-27T06:34:20.705Z,1020.39
2018-01-27T06:35:01.140Z,1020.42
2018-01-27T06:35:41.521Z,1020.42
2018-01-27T06:36:21.928Z,1020.43
2018-01-27T06:37:02.354Z,1020.46
2018-01-27T06:37:42.690Z,1020.42
2018-01-27T06:38:23.141Z,1020.43
2018-01-27T06:39:03.612Z,1020.46
2018-01-27T06:39:43.928Z,1020.49
2018-01-27T06:40:24.407Z,1020.5
2018-01-27T06:41:04.889Z,1020.48
2018-01-27T06:41:45.218Z,1020.57
2018-01-27T06:42:25.612Z,1020.54
2018-01-27T06:43:05.996Z,1020.58
2018-01-27T06:43:46.423Z,1020.6
2018-01-27T06:44:26.850Z,1020.63
2018-01-27T06:45:07.247Z,1020.62
2018-01-27T06:45:47.672Z,1020.62
2018-01-27T06:46:28.114Z,1020.63
2018-01-27T06:47:08.566Z,1020.66
2018-01-27T06:47:48.967Z,1020.64
2018-01-27T06:48:29.367Z,1020.68
2018-01-27T06:49:09.897Z,1020.69
2018-01-27T06:49:50.220Z,1020.67
2018-01-27T06:50:30.598Z,1020.7
2018-01-27T06:51:11.019Z,1020.67
2018-01-27T06:51:51.342Z,1020.71
2018-01-27T06:52:31.857Z,1020.7
2018-01-27T06:53:12.300Z,1020.71
2018-01-27T06:53:52.693Z,1020.7
2018-01-27T06:54:33.078Z,1020.68
2018-01-27T06:55:13.458Z,1020.74
2018-01-27T06:55:53.885Z,1020.76
2018-01-27T06:56:34.362Z,1020.72
2018-01-27T06:57:14.732Z,1020.77
2018-01-27T06:57:55.174Z,1020.79
2018-01-27T06:58:35.581Z,1020.8
2018-01-27T06:59:15.933Z,1020.82
2018-01-27T06:59:56.435Z,1020.83
2018-01-27T07:00:36.863Z,1020.87
2018-01-27T07:01:17.176Z,1020.88
2018-01-27T07:01:57.796Z,1020.84
2018-01-27T07:02:38.639Z,1020.83
2018-01-27T07:03:19.164Z,1020.82
2018-01-27T07:04:00.721Z,1020.83
2018-01-27T07:04:41.256Z,1020.86
2018-01-27T07:05:21.645Z,1020.86
2018-01-27T07:06:02.288Z,1020.86
2018-01-27T07:06:43.078Z,1020.88
2018-01-27T07:07:23.552Z,1020.84
2018-01-27T07:08:03.850Z,1020.93
2018-01-27T07:08:44.293Z,1020.89
2018-01-27T07:09:24.843Z,1020.88
2018-01-27T07:10:05.263Z,1020.89
2018-01-27T07:10:45.668Z,1020.92
2018-01-27T07:11:26.120Z,1020.92
2018-01-27T07:12:06.451Z,1020.94
2018-01-27T07:12:46.919Z,1020.97
2018-01-27T07:13:28.297Z,1021.01
2018-01-27T07:14:08.171Z,1021
2018-01-27T07:14:48.546Z,1021.06
2018-01-27T07:15:29.344Z,1021.04
2018-01-27T07:16:09.740Z,1021.04
2018-01-27T07:16:50.180Z,1021.02
2018-01-27T07:17:31.972Z,1021
2018-01-27T07:18:11.861Z,1021.04
2018-01-27T07:18:52.302Z,1021
2018-01-27T07:19:33.023Z,1021.01
2018-01-27T07:20:13.421Z,1021.04
2018-01-27T07:20:53.847Z,1021.02
2018-01-27T07:21:34.237Z,1020.99
2018-01-27T07:22:14.637Z,1020.97
2018-01-27T07:22:55.042Z,1020.96
2018-01-27T07:23:35.508Z,1021.02
2018-01-27T07:24:15.861Z,1021.04
2018-01-27T07:24:56.277Z,1021.06
2018-01-27T07:25:36.717Z,1021.08
2018-01-27T07:26:17.112Z,1021.13
2018-01-27T07:26:57.483Z,1021.16
2018-01-27T07:27:37.971Z,1021.17
2018-01-27T07:28:18.344Z,1021.17
2018-01-27T07:28:58.776Z,1021.23
2018-01-27T07:29:39.170Z,1021.23
2018-01-27T07:30:19.562Z,1021.23
2018-01-27T07:31:00.074Z,1021.21
2018-01-27T07:31:40.657Z,1021.2
2018-01-27T07:32:21.051Z,1021.24
2018-01-27T07:33:01.420Z,1021.24
2018-01-27T07:33:42.818Z,1021.24
2018-01-27T07:34:24.548Z,1021.24
2018-01-27T07:35:15.308Z,1021.25
2018-01-27T07:35:55.814Z,1021.26
2018-01-27T07:36:36.138Z,1021.27
2018-01-27T07:37:16.501Z,1021.25
2018-01-27T07:37:56.940Z,1021.26
2018-01-27T07:38:37.363Z,1021.25
2018-01-27T07:39:17.775Z,1021.27
2018-01-27T07:39:58.175Z,1021.24
2018-01-27T07:40:38.631Z,1021.28
2018-01-27T07:41:19.076Z,1021.29
2018-01-27T07:41:59.527Z,1021.27
2018-01-27T07:42:39.903Z,1021.3
2018-01-27T07:43:20.316Z,1021.29
2018-01-27T07:44:00.804Z,1021.28
2018-01-27T07:44:41.327Z,1021.33
2018-01-27T07:45:21.948Z,1021.34
2018-01-27T07:46:02.378Z,1021.31
2018-01-27T07:46:42.747Z,1021.35
2018-01-27T07:47:23.128Z,1021.38
2018-01-27T07:48:03.491Z,1021.36
2018-01-27T07:48:43.903Z,1021.38
2018-01-27T07:49:24.261Z,1021.4
2018-01-27T07:50:04.776Z,1021.39
2018-01-27T07:50:45.152Z,1021.37
2018-01-27T07:51:25.528Z,1021.4
2018-01-27T07:52:05.943Z,1021.39
2018-01-27T07:52:46.343Z,1021.42
2018-01-27T07:53:26.738Z,1021.42
2018-01-27T07:54:07.129Z,1021.4
2018-01-27T07:54:47.543Z,1021.41
2018-01-27T07:55:27.912Z,1021.44
2018-01-27T07:56:08.264Z,1021.39
2018-01-27T07:56:48.714Z,1021.38
2018-01-27T07:57:29.102Z,1021.44
2018-01-27T07:58:09.498Z,1021.44
2018-01-27T07:58:49.947Z,1021.39
2018-01-27T07:59:30.357Z,1021.44
2018-01-27T08:00:10.701Z,1021.46
2018-01-27T08:00:51.123Z,1021.48
2018-01-27T08:01:31.503Z,1021.52
2018-01-27T08:02:11.868Z,1021.48
2018-01-27T08:02:52.300Z,1021.49
2018-01-27T08:03:32.641Z,1021.49
2018-01-27T08:04:13.047Z,1021.54
2018-01-27T08:04:53.495Z,1021.55
2018-01-27T08:05:33.875Z,1021.55
2018-01-27T08:06:14.231Z,1021.54
2018-01-27T08:06:54.747Z,1021.55
2018-01-27T08:07:35.205Z,1021.56
2018-01-27T08:08:15.555Z,1021.57
2018-01-27T08:08:56.060Z,1021.55
2018-01-27T08:09:36.406Z,1021.56
2018-01-27T08:10:16.816Z,1021.57
2018-01-27T08:10:57.230Z,1021.58
2018-01-27T08:11:37.635Z,1021.6
2018-01-27T08:12:18.088Z,1021.63
2018-01-27T08:12:58.448Z,1021.6
2018-01-27T08:13:38.886Z,1021.62
2018-01-27T08:14:19.347Z,1021.65
2018-01-27T08:14:59.716Z,1021.68
2018-01-27T08:15:40.072Z,1021.69
2018-01-27T08:16:20.506Z,1021.69
2018-01-27T08:17:00.957Z,1021.7
2018-01-27T08:17:41.322Z,1021.7
2018-01-27T08:18:21.755Z,1021.68
2018-01-27T08:19:02.104Z,1021.67
2018-01-27T08:19:42.541Z,1021.65
2018-01-27T08:20:22.983Z,1021.66
2018-01-27T08:21:03.353Z,1021.66
2018-01-27T08:21:43.743Z,1021.67
2018-01-27T08:22:24.178Z,1021.66
2018-01-27T08:23:04.566Z,1021.64
2018-01-27T08:23:44.928Z,1021.64
2018-01-27T08:24:25.350Z,1021.63
2018-01-27T08:25:05.755Z,1021.64
2018-01-27T08:25:46.179Z,1021.61
2018-01-27T08:26:26.566Z,1021.61
2018-01-27T08:27:06.994Z,1021.6
2018-01-27T08:27:47.364Z,1021.61
2018-01-27T08:28:27.752Z,1021.57
2018-01-27T08:29:08.107Z,1021.6
2018-01-27T08:29:48.629Z,1021.57
2018-01-27T08:30:29.008Z,1021.58
2018-01-27T08:31:09.413Z,1021.53
2018-01-27T08:31:49.775Z,1021.52
2018-01-27T08:32:30.331Z,1021.49
2018-01-27T08:33:10.655Z,1021.52
2018-01-27T08:33:51.192Z,1021.55
2018-01-27T08:34:31.504Z,1021.52
2018-01-27T08:35:12.000Z,1021.56
2018-01-27T08:35:52.401Z,1021.6
2018-01-27T08:36:32.781Z,1021.59
2018-01-27T08:37:13.147Z,1021.65
2018-01-27T08:37:53.867Z,1021.63
2018-01-27T08:38:34.240Z,1021.66
2018-01-27T08:39:14.660Z,1021.65
2018-01-27T08:39:55.033Z,1021.63
2018-01-27T08:40:35.458Z,1021.63
2018-01-27T08:41:15.869Z,1021.59
2018-01-27T08:41:56.266Z,1021.61
2018-01-27T08:42:36.628Z,1021.59
2018-01-27T08:43:17.052Z,1021.56
2018-01-27T08:43:57.475Z,1021.52
2018-01-27T08:44:37.845Z,1021.51
2018-01-27T08:45:18.210Z,1021.51
2018-01-27T08:45:58.700Z,1021.49
2018-01-27T08:46:39.033Z,1021.44
2018-01-27T08:47:19.473Z,1021.44
2018-01-27T08:47:59.901Z,1021.45
2018-01-27T08:48:40.312Z,1021.41
2018-01-27T08:49:20.674Z,1021.39
2018-01-27T08:50:01.113Z,1021.35
2018-01-27T08:50:41.510Z,1021.35
2018-01-27T08:51:21.842Z,1021.37
2018-01-27T08:52:02.319Z,1021.35
2018-01-27T08:52:42.711Z,1021.27
2018-01-27T08:53:23.078Z,1021.35
2018-01-27T08:54:03.521Z,1021.28
2018-01-27T08:54:43.909Z,1021.29
2018-01-27T08:55:24.306Z,1021.32
2018-01-27T08:56:04.700Z,1021.41
2018-01-27T08:56:45.113Z,1021.39
2018-01-27T08:57:25.515Z,1021.43
2018-01-27T08:58:05.925Z,1021.45
2018-01-27T08:58:46.303Z,1021.46
2018-01-27T08:59:26.781Z,1021.5
2018-01-27T09:00:07.268Z,1021.55
2018-01-27T09:00:47.709Z,1021.54
2018-01-27T09:01:28.210Z,1021.57
2018-01-27T09:02:08.525Z,1021.64
2018-01-27T09:02:48.967Z,1021.62
2018-01-27T09:03:29.401Z,1021.62
2018-01-27T09:04:09.717Z,1021.6
2018-01-27T09:04:50.202Z,1021.57
2018-01-27T09:05:30.556Z,1021.63
2018-01-27T09:06:11.065Z,1021.63
2018-01-27T09:06:51.426Z,1021.59
2018-01-27T09:07:31.903Z,1021.61
2018-01-27T09:08:12.374Z,1021.61
2018-01-27T09:08:52.896Z,1021.66
2018-01-27T09:09:33.257Z,1021.67
2018-01-27T09:10:13.624Z,1021.74
2018-01-27T09:10:54.097Z,1021.74
2018-01-27T09:11:34.444Z,1021.76
2018-01-27T09:12:14.981Z,1021.79
2018-01-27T09:12:55.332Z,1021.73
2018-01-27T09:13:36.512Z,1021.73
2018-01-27T09:14:16.688Z,1021.7
2018-01-27T09:14:56.987Z,1021.76
2018-01-27T09:15:37.540Z,1021.75
2018-01-27T09:16:17.929Z,1021.72
2018-01-27T09:16:58.331Z,1021.72
2018-01-27T09:17:38.794Z,1021.75
2018-01-27T09:18:19.199Z,1021.68
2018-01-27T09:18:59.643Z,1021.71
2018-01-27T09:19:40.013Z,1021.67
2018-01-27T09:20:20.329Z,1021.67
2018-01-27T09:21:00.757Z,1021.7
2018-01-27T09:21:41.198Z,1021.66
2018-01-27T09:22:21.526Z,1021.65
2018-01-27T09:23:01.952Z,1021.62
2018-01-27T09:23:42.337Z,1021.67
2018-01-27T09:24:22.730Z,1021.62
2018-01-27T09:25:03.122Z,1021.61
2018-01-27T09:25:43.558Z,1021.61
2018-01-27T09:26:24.044Z,1021.59
2018-01-27T09:27:04.357Z,1021.51
2018-01-27T09:27:44.860Z,1021.5
2018-01-27T09:28:25.189Z,1021.55
2018-01-27T09:29:05.608Z,1021.53
2018-01-27T09:29:46.039Z,1021.52
2018-01-27T09:30:26.420Z,1021.63
2018-01-27T09:31:06.894Z,1021.64
2018-01-27T09:31:47.348Z,1021.64
2018-01-27T09:32:28.428Z,1021.71
2018-01-27T09:33:08.990Z,1021.73
2018-01-27T09:33:49.365Z,1021.78
2018-01-27T09:36:52.929Z,1021.78
2018-01-27T09:38:03.894Z,1021.78
2018-01-27T09:42:29.019Z,1021.78
2018-01-27T09:43:24.692Z,1021.79
2018-01-27T09:44:18.254Z,1021.73
2018-01-27T09:45:10.249Z,1021.77
2018-01-27T09:46:02.519Z,1021.79
2018-01-27T09:46:55.062Z,1021.81
2018-01-27T09:47:48.232Z,1021.91
2018-01-27T09:48:40.912Z,1021.9
2018-01-27T09:49:33.468Z,1022
2018-01-27T09:50:21.502Z,1022
2018-01-27T09:51:01.775Z,1022.06
2018-01-27T09:51:44.802Z,1021.99
2018-01-27T09:52:25.615Z,1021.99
2018-01-27T09:53:06.473Z,1021.96
2018-01-27T09:53:46.556Z,1021.94
2018-01-27T09:54:28.033Z,1021.91
2018-01-27T09:55:09.165Z,1021.88
2018-01-27T09:55:49.839Z,1021.89
2018-01-27T09:56:30.191Z,1021.91
2018-01-27T09:57:10.598Z,1021.88
2018-01-27T09:57:51.011Z,1021.86
2018-01-27T09:58:31.390Z,1021.93
2018-01-27T09:59:11.860Z,1021.87
2018-01-27T09:59:52.325Z,1021.96
2018-01-27T10:01:25.883Z,1021.88
2018-01-27T10:02:06.176Z,1021.88
2018-01-27T10:02:46.516Z,1021.89
2018-01-27T10:43:45.662Z,1021.83
2018-01-27T10:44:55.488Z,1021.9
2018-01-27T10:48:09.994Z,1021.78
2018-01-27T10:53:27.993Z,1021.84
2018-01-27T10:54:15.955Z,1021.88
2018-01-27T10:55:03.692Z,1021.79
2018-01-27T10:55:52.452Z,1021.79
2018-01-27T10:56:40.991Z,1021.83
2018-01-27T10:59:26.623Z,1021.89
2018-01-27T11:00:19.268Z,1021.89
2018-01-27T11:01:15.687Z,1021.89
2018-01-27T11:02:16.158Z,1021.86
2018-01-27T11:03:09.143Z,1021.93
2018-01-27T11:04:01.620Z,1021.88
2018-01-27T11:04:53.388Z,1021.93
2018-01-27T11:05:44.809Z,1021.9
2018-01-27T11:06:25.917Z,1021.83
2018-01-27T11:07:06.373Z,1021.84
2018-01-27T11:07:48.029Z,1021.81
2018-01-27T11:08:28.422Z,1021.8
2018-01-27T11:09:08.762Z,1021.85
2018-01-27T11:09:49.273Z,1021.78
2018-01-27T11:10:29.651Z,1021.79
2018-01-27T11:11:10.140Z,1021.8
2018-01-27T11:11:50.453Z,1021.82
2018-01-27T11:12:30.999Z,1021.81
2018-01-27T11:13:11.781Z,1021.79
2018-01-27T11:13:51.921Z,1021.85
2018-01-27T11:14:32.283Z,1021.86
2018-01-27T11:15:12.754Z,1021.83
2018-01-27T11:15:53.436Z,1021.81
2018-01-27T11:16:33.975Z,1021.82
2018-01-27T11:17:16.367Z,1021.89
2018-01-27T11:17:56.117Z,1021.9
2018-01-27T11:18:36.494Z,1021.86
2018-01-27T11:19:16.976Z,1021.85
2018-01-27T11:19:57.402Z,1021.83
2018-01-27T11:20:37.889Z,1021.84
2018-01-27T11:21:18.291Z,1021.76
2018-01-27T11:21:58.744Z,1021.81
2018-01-27T11:22:39.122Z,1021.81
2018-01-27T11:23:19.529Z,1021.78
2018-01-27T11:24:07.694Z,1021.83
2018-01-27T11:24:48.113Z,1021.82
2018-01-27T11:25:28.923Z,1021.88
2018-01-27T11:26:09.313Z,1021.77
2018-01-27T11:26:50.153Z,1021.82
2018-01-27T11:27:30.615Z,1021.83
2018-01-27T11:28:11.034Z,1021.82
2018-01-27T11:30:21.747Z,1021.88
2018-01-27T11:31:13.414Z,1021.81
2018-01-27T11:32:03.367Z,1021.85
2018-01-27T11:32:43.779Z,1021.83
2018-01-27T11:33:25.740Z,1021.82
2018-01-27T11:34:07.327Z,1021.87
2018-01-27T11:34:47.970Z,1021.9
2018-01-27T11:35:30.176Z,1021.8
2018-01-27T11:36:10.522Z,1021.88
2018-01-27T11:36:51.104Z,1021.82
2018-01-27T11:37:31.895Z,1021.79
2018-01-27T11:38:12.308Z,1021.82
2018-01-27T11:38:52.909Z,1021.83
2018-01-27T11:39:33.318Z,1021.88
2018-01-27T11:40:13.776Z,1021.8
2018-01-27T11:40:55.760Z,1021.82
2018-01-27T11:41:36.080Z,1021.82
2018-01-27T11:42:16.619Z,1021.8
2018-01-27T11:42:57.268Z,1021.8
2018-01-27T11:43:38.229Z,1021.77
2018-01-27T11:44:20.185Z,1021.71
2018-01-27T11:45:07.271Z,1021.72
2018-01-27T11:45:57.935Z,1021.75
2018-01-27T11:46:39.688Z,1021.72
2018-01-27T11:47:19.603Z,1021.7
2018-01-27T11:48:00.133Z,1021.71
2018-01-27T11:48:40.946Z,1021.65
2018-01-27T11:49:21.878Z,1021.68
2018-01-27T11:50:02.642Z,1021.69
2018-01-27T11:50:51.751Z,1021.71
2018-01-27T11:51:39.646Z,1021.68
2018-01-27T11:52:20.144Z,1021.65
2018-01-27T11:53:00.443Z,1021.67
2018-01-27T11:53:40.823Z,1021.64
2018-01-27T11:54:21.822Z,1021.67
2018-01-27T11:55:03.200Z,1021.63
2018-01-27T11:55:43.896Z,1021.63
2018-01-27T11:56:23.485Z,1021.62
2018-01-27T11:57:03.902Z,1021.61
2018-01-27T11:57:44.417Z,1021.54
2018-01-27T11:58:24.796Z,1021.53
2018-01-27T11:59:05.228Z,1021.6
2018-01-27T11:59:45.571Z,1021.61
2018-01-27T12:00:25.998Z,1021.57
2018-01-27T12:01:06.424Z,1021.62
2018-01-27T12:01:46.747Z,1021.54
2018-01-27T12:02:27.159Z,1021.6
2018-01-27T12:03:07.603Z,1021.56
2018-01-27T12:03:48.005Z,1021.57
2018-01-27T12:04:28.422Z,1021.61
2018-01-27T12:05:08.845Z,1021.62
2018-01-27T12:05:49.220Z,1021.6
2018-01-27T12:06:29.698Z,1021.61
2018-01-27T12:07:10.062Z,1021.6
2018-01-27T12:07:50.470Z,1021.75
2018-01-27T12:08:30.864Z,1021.69
2018-01-27T12:11:53.590Z,1021.59
2018-01-27T12:12:35.511Z,1021.56
2018-01-27T12:13:17.702Z,1021.67
2018-01-27T12:14:03.579Z,1021.55
2018-01-27T12:19:17.947Z,1021.44
2018-01-27T12:32:41.425Z,1021.23
2018-01-27T12:33:23.582Z,1021.18
2018-01-27T12:34:07.748Z,1021.15
2018-01-27T12:44:35.981Z,1020.79
2018-01-27T12:45:21.711Z,1020.79
2018-01-27T12:46:15.401Z,1020.7
2018-01-27T12:46:57.721Z,1020.7
2018-01-27T12:54:17.983Z,1020.61
2018-01-27T12:54:58.979Z,1020.56
2018-01-27T12:55:42.334Z,1020.52
2018-01-27T12:56:28.083Z,1020.5
2018-01-27T12:57:07.273Z,1020.59
2018-01-27T13:02:44.222Z,1020.59
2018-01-27T13:04:40.432Z,1020.63
2018-01-27T13:05:26.394Z,1020.69
2018-01-27T13:06:07.148Z,1020.74
2018-01-27T13:19:50.225Z,1020.58
2018-01-27T13:20:29.529Z,1020.66
2018-01-27T13:26:02.995Z,1020.41
2018-01-27T13:26:51.494Z,1020.4
2018-01-27T13:27:40.417Z,1020.47
2018-01-27T13:28:29.343Z,1020.41
2018-01-27T13:29:18.353Z,1020.43
2018-01-27T13:32:43.725Z,1020.28
2018-01-27T13:33:32.629Z,1020.28
2018-01-27T13:34:20.918Z,1020.28
2018-01-27T13:35:10.230Z,1020.22
2018-01-27T13:36:00.583Z,1020.28
2018-01-27T13:36:48.950Z,1020.23
2018-01-27T13:41:03.748Z,1020.24
2018-01-27T13:41:54.786Z,1020.29
2018-01-27T13:42:43.409Z,1020.31
2018-01-27T13:43:33.030Z,1020.37
2018-01-27T13:44:21.585Z,1020.33
2018-01-27T13:49:41.687Z,1020.45
2018-01-27T13:50:30.976Z,1020.34
2018-01-27T13:51:19.936Z,1020.41
2018-01-27T13:52:08.476Z,1020.47
2018-01-27T13:52:56.475Z,1020.43
2018-01-27T13:53:45.039Z,1020.42
2018-01-27T13:54:34.090Z,1020.45
2018-01-27T13:55:25.118Z,1020.41
2018-01-27T13:56:13.676Z,1020.39
2018-01-27T13:57:02.365Z,1020.43
2018-01-27T13:57:50.982Z,1020.38
2018-01-27T14:04:58.279Z,1020.46
2018-01-27T14:09:02.201Z,1020.35
2018-01-27T14:16:58.748Z,1020.47
2018-01-27T14:17:39.983Z,1020.51
2018-01-27T14:18:20.623Z,1020.53
2018-01-27T14:19:09.741Z,1020.52
2018-01-27T14:19:48.291Z,1020.57
2018-01-27T14:26:42.911Z,1020.79
2018-01-27T14:27:31.474Z,1020.81
2018-01-27T14:28:20.620Z,1020.79
2018-01-27T14:29:09.262Z,1020.82
2018-01-27T14:29:58.588Z,1020.86
2018-01-27T15:08:38.541Z,1020.61
2018-01-27T15:09:27.326Z,1020.65
2018-01-27T15:10:16.823Z,1020.64
2018-01-27T15:11:05.922Z,1020.66
2018-01-27T15:11:55.207Z,1020.66
2018-01-27T15:16:25.011Z,1020.78
2018-01-27T15:31:44.326Z,1020.6
2018-01-27T15:32:36.827Z,1020.53
2018-01-27T15:33:20.655Z,1020.49
2018-01-27T15:41:29.090Z,1020.47
2018-01-27T15:42:14.458Z,1020.4
2018-01-27T15:42:58.693Z,1020.39
2018-01-27T15:43:37.669Z,1020.47
2018-01-27T15:44:18.463Z,1020.41
2018-01-27T15:44:58.848Z,1020.43